createdAt,value
2022-11-26T00:00:21.564Z,23.8
2022-11-26T00:01:23.763Z,23.8
2022-11-26T00:02:26.107Z,23.7
2022-11-26T00:03:29.595Z,23.8
2022-11-26T00:04:32.627Z,23.5
2022-11-26T00:05:35.146Z,23.6
2022-11-26T00:06:37.327Z,24.1
2022-11-26T00:07:39.257Z,23.5
2022-11-26T00:08:41.919Z,23.8
2022-11-26T00:09:44.134Z,23.4
2022-11-26T00:10:46.611Z,23.8
2022-11-26T00:11:49.097Z,23.7
2022-11-26T00:12:51.568Z,24.2
2022-11-26T00:13:53.871Z,24.3
2022-11-26T00:14:56.414Z,23.6
2022-11-26T00:15:58.918Z,23.5
2022-11-26T00:17:01.424Z,24.2
2022-11-26T00:18:04.292Z,23.9
2022-11-26T00:19:06.503Z,23.9
2022-11-26T00:20:08.700Z,24.5
2022-11-26T00:21:10.625Z,23.6
2022-11-26T00:22:13.110Z,23.9
2022-11-26T00:23:15.028Z,24.3
2022-11-26T00:24:17.519Z,24
2022-11-26T00:25:19.988Z,24
2022-11-26T00:26:22.472Z,23.4
2022-11-26T00:27:24.947Z,23.8
2022-11-26T00:28:27.161Z,24
2022-11-26T00:29:29.694Z,23.8
2022-11-26T00:30:31.898Z,23.7
2022-11-26T00:31:34.437Z,23.8
2022-11-26T00:32:37.339Z,24.1
2022-11-26T00:33:39.806Z,23.6
2022-11-26T00:34:42.357Z,23.6
2022-11-26T00:35:44.263Z,23.6
2022-11-26T00:36:46.739Z,23.6
2022-11-26T00:37:48.948Z,23.8
2022-11-26T00:38:50.580Z,24.2
2022-11-26T00:39:52.789Z,24.4
2022-11-26T00:40:55.270Z,24.4
2022-11-26T00:41:57.743Z,23.6
2022-11-26T00:43:01.786Z,24.3
2022-11-26T00:44:04.423Z,24.2
2022-11-26T00:45:07.017Z,23.9
2022-11-26T00:46:08.990Z,23.9
2022-11-26T00:47:11.918Z,24.2
2022-11-26T00:48:14.384Z,24.3
2022-11-26T00:49:16.585Z,24.1
2022-11-26T00:50:19.097Z,23.9
2022-11-26T00:51:21.031Z,24.1
2022-11-26T00:52:23.512Z,24.2
2022-11-26T00:53:26.002Z,24.4
2022-11-26T00:54:28.475Z,23.7
2022-11-26T00:55:31.002Z,23.6
2022-11-26T00:56:37.709Z,23.7
2022-11-26T00:57:38.462Z,23.9
2022-11-26T00:58:40.955Z,23.9
2022-11-26T00:59:43.434Z,24.1
2022-11-26T01:00:46.020Z,24.4
2022-11-26T01:01:48.859Z,23.9
2022-11-26T01:02:51.674Z,24.4
2022-11-26T01:03:54.169Z,24.5
2022-11-26T01:04:56.366Z,24.1
2022-11-26T01:05:58.893Z,24.3
2022-11-26T01:07:01.376Z,24
2022-11-26T01:08:03.853Z,23.9
2022-11-26T01:09:05.770Z,24.2
2022-11-26T01:10:07.963Z,24.2
2022-11-26T01:11:10.434Z,24.5
2022-11-26T01:12:12.637Z,24.4
2022-11-26T01:13:14.880Z,24.4
2022-11-26T01:14:17.376Z,23.9
2022-11-26T01:15:19.866Z,24.1
2022-11-26T01:16:22.489Z,23.7
2022-11-26T01:17:25.299Z,24.2
2022-11-26T01:18:27.300Z,24.1
2022-11-26T01:19:29.502Z,24.4
2022-11-26T01:20:31.974Z,24.1
2022-11-26T01:21:34.485Z,24.4
2022-11-26T01:22:36.686Z,24.2
2022-11-26T01:23:38.881Z,24.2
2022-11-26T01:24:40.801Z,24
2022-11-26T01:25:43.358Z,24.2
2022-11-26T01:26:45.269Z,23.9
2022-11-26T01:27:47.461Z,24.4
2022-11-26T01:28:49.666Z,24.6
2022-11-26T01:29:51.868Z,24.6
2022-11-26T01:30:54.355Z,24.2
2022-11-26T01:31:56.987Z,24.3
2022-11-26T01:32:59.823Z,24.1
2022-11-26T01:34:02.331Z,24.2
2022-11-26T01:35:05.029Z,24.1
2022-11-26T01:36:06.678Z,24.1
2022-11-26T01:37:09.181Z,24.1
2022-11-26T01:38:11.085Z,24.3
2022-11-26T01:39:13.300Z,24.5
2022-11-26T01:40:15.780Z,24.3
2022-11-26T01:41:17.989Z,24.2
2022-11-26T01:42:20.483Z,24
2022-11-26T01:43:22.966Z,24.3
2022-11-26T01:44:25.446Z,24.5
2022-11-26T01:45:27.727Z,23.8
2022-11-26T01:46:30.268Z,23.8
2022-11-26T01:47:32.528Z,24.2
2022-11-26T01:48:35.008Z,24.2
2022-11-26T01:49:37.517Z,24.4
2022-11-26T01:50:39.998Z,24.3
2022-11-26T01:51:42.491Z,23.9
2022-11-26T01:52:44.714Z,24.3
2022-11-26T01:53:46.898Z,24.3
2022-11-26T01:54:49.374Z,24.5
2022-11-26T01:55:51.575Z,24.1
2022-11-26T01:56:53.765Z,24.3
2022-11-26T01:57:55.971Z,24.1
2022-11-26T01:58:58.173Z,24.2
2022-11-26T02:00:00.367Z,24.1
2022-11-26T02:01:03.017Z,24.3
2022-11-26T02:02:05.935Z,24.2
2022-11-26T02:03:08.771Z,23.9
2022-11-26T02:04:10.996Z,24.5
2022-11-26T02:05:13.502Z,24.3
2022-11-26T02:06:15.714Z,24.3
2022-11-26T02:07:17.924Z,24.2
2022-11-26T02:08:20.336Z,24.2
2022-11-26T02:09:22.822Z,24.1
2022-11-26T02:10:25.302Z,23.9
2022-11-26T02:11:27.802Z,24.5
2022-11-26T02:12:30.269Z,24.6
2022-11-26T02:13:31.925Z,24.1
2022-11-26T02:14:34.395Z,24.2
2022-11-26T02:15:37.825Z,24
2022-11-26T02:16:40.337Z,24.3
2022-11-26T02:17:42.731Z,24.4
2022-11-26T02:18:45.273Z,24.1
2022-11-26T02:19:47.476Z,24.6
2022-11-26T02:20:49.698Z,24.4
2022-11-26T02:21:52.170Z,24.3
2022-11-26T02:22:54.363Z,24.5
2022-11-26T02:23:56.870Z,23.9
2022-11-26T02:24:59.352Z,24.2
2022-11-26T02:26:01.839Z,24.4
2022-11-26T02:27:04.032Z,24.3
2022-11-26T02:28:06.250Z,24.2
2022-11-26T02:29:08.430Z,24.2
2022-11-26T02:30:10.632Z,24.7
2022-11-26T02:31:12.888Z,24.5
2022-11-26T02:32:15.407Z,24
2022-11-26T02:33:17.877Z,24.1
2022-11-26T02:34:20.433Z,24.3
2022-11-26T02:35:22.613Z,24.2
2022-11-26T02:36:25.122Z,24.4
2022-11-26T02:37:27.035Z,24.5
2022-11-26T02:38:29.518Z,23.7
2022-11-26T02:39:31.753Z,24.1
2022-11-26T02:40:34.265Z,24
2022-11-26T02:41:36.748Z,24.5
2022-11-26T02:42:38.946Z,24.4
2022-11-26T02:43:41.427Z,24.3
2022-11-26T02:44:43.899Z,24.2
2022-11-26T02:45:46.505Z,24.4
2022-11-26T02:46:49.336Z,24.4
2022-11-26T02:47:51.829Z,24.3
2022-11-26T02:48:54.317Z,24.2
2022-11-26T02:49:56.641Z,24.2
2022-11-26T02:50:59.133Z,24.7
2022-11-26T02:52:01.664Z,24.3
2022-11-26T02:53:04.142Z,24.2
2022-11-26T02:54:06.352Z,24.6
2022-11-26T02:55:08.589Z,24.3
2022-11-26T02:56:10.818Z,24.3
2022-11-26T02:57:12.722Z,24.3
2022-11-26T02:58:15.198Z,24.1
2022-11-26T02:59:17.672Z,24.3
2022-11-26T03:00:20.159Z,24.2
2022-11-26T03:01:22.672Z,23.9
2022-11-26T03:02:25.473Z,24.3
2022-11-26T03:03:27.736Z,24.3
2022-11-26T03:04:30.189Z,24.4
2022-11-26T03:05:32.728Z,24
2022-11-26T03:06:35.209Z,24.2
2022-11-26T03:07:37.277Z,24
2022-11-26T03:08:40.119Z,24.4
2022-11-26T03:09:42.596Z,24.3
2022-11-26T03:10:45.091Z,24.7
2022-11-26T03:11:47.339Z,24.4
2022-11-26T03:12:49.984Z,24.5
2022-11-26T03:13:52.470Z,24.4
2022-11-26T03:14:55.366Z,24.4
2022-11-26T03:15:57.622Z,24.2
2022-11-26T03:17:00.443Z,24.2
2022-11-26T03:18:02.382Z,24.3
2022-11-26T03:19:04.576Z,24.1
2022-11-26T03:20:06.219Z,24.3
2022-11-26T03:21:08.749Z,24.3
2022-11-26T03:22:10.952Z,24.5
2022-11-26T03:23:13.468Z,24.3
2022-11-26T03:24:15.660Z,24.3
2022-11-26T03:25:18.181Z,24.3
2022-11-26T03:26:20.668Z,24.3
2022-11-26T03:27:23.145Z,24.3
2022-11-26T03:28:25.620Z,24.3
2022-11-26T03:29:28.098Z,24.4
2022-11-26T03:30:30.584Z,24.5
2022-11-26T03:31:33.116Z,24.7
2022-11-26T03:32:35.311Z,24.5
2022-11-26T03:33:37.555Z,23.9
2022-11-26T03:34:40.368Z,24.7
2022-11-26T03:35:42.977Z,24.4
2022-11-26T03:36:45.540Z,24.3
2022-11-26T03:37:46.926Z,24.2
2022-11-26T03:38:49.434Z,24.3
2022-11-26T03:39:52.004Z,24.4
2022-11-26T03:40:54.477Z,24.4
2022-11-26T03:41:56.718Z,24.3
2022-11-26T03:42:59.249Z,24.1
2022-11-26T03:44:01.724Z,24.4
2022-11-26T03:45:03.930Z,24.1
2022-11-26T03:46:06.470Z,24.3
2022-11-26T03:47:08.903Z,24.5
2022-11-26T03:48:11.097Z,24.5
2022-11-26T03:49:13.023Z,24.4
2022-11-26T03:50:15.227Z,24.4
2022-11-26T03:51:17.424Z,24
2022-11-26T03:52:19.979Z,24.3
2022-11-26T03:53:22.188Z,24.9
2022-11-26T03:54:24.677Z,24
2022-11-26T03:55:27.150Z,24.4
2022-11-26T03:56:29.635Z,24.4
2022-11-26T03:57:32.139Z,24.5
2022-11-26T03:58:34.630Z,24.4
2022-11-26T03:59:37.114Z,24.2
2022-11-26T04:00:39.304Z,24.4
2022-11-26T04:01:41.824Z,24.3
2022-11-26T04:02:44.470Z,24.6
2022-11-26T04:03:47.202Z,24.2
2022-11-26T04:04:49.671Z,24.3
2022-11-26T04:05:51.879Z,24.5
2022-11-26T04:06:54.084Z,24.4
2022-11-26T04:07:56.407Z,24.4
2022-11-26T04:08:58.779Z,24.2
2022-11-26T04:10:01.015Z,24.3
2022-11-26T04:11:03.524Z,24.4
2022-11-26T04:12:06.005Z,24.4
2022-11-26T04:13:08.205Z,24.2
2022-11-26T04:14:10.680Z,24.3
2022-11-26T04:15:13.169Z,24.5
2022-11-26T04:16:15.136Z,24.3
2022-11-26T04:17:17.907Z,24.5
2022-11-26T04:18:20.384Z,23.8
2022-11-26T04:19:22.859Z,24.4
2022-11-26T04:20:25.050Z,24.2
2022-11-26T04:21:26.953Z,23.8
2022-11-26T04:22:29.431Z,24.1
2022-11-26T04:23:31.967Z,24.2
2022-11-26T04:24:33.900Z,24.3
2022-11-26T04:25:37.219Z,24
2022-11-26T04:26:39.682Z,24.3
2022-11-26T04:27:42.168Z,24.5
2022-11-26T04:28:44.655Z,24.5
2022-11-26T04:29:46.559Z,24.4
2022-11-26T04:30:48.754Z,24.1
2022-11-26T04:31:51.325Z,24.1
2022-11-26T04:32:54.217Z,23.8
2022-11-26T04:33:56.427Z,24.3
2022-11-26T04:34:58.930Z,24
2022-11-26T04:36:01.409Z,23.9
2022-11-26T04:37:03.899Z,24
2022-11-26T04:38:06.386Z,24.1
2022-11-26T04:39:08.995Z,24.5
2022-11-26T04:40:11.199Z,23.7
2022-11-26T04:41:12.890Z,23.8
2022-11-26T04:42:15.365Z,24.1
2022-11-26T04:43:17.851Z,23.6
2022-11-26T04:44:20.373Z,24.2
2022-11-26T04:45:22.587Z,23.9
2022-11-26T04:46:24.793Z,24.2
2022-11-26T04:47:26.418Z,24.2
2022-11-26T04:48:28.703Z,24.2
2022-11-26T04:49:30.891Z,24.5
2022-11-26T04:50:32.832Z,24.2
2022-11-26T04:51:35.010Z,23.7
2022-11-26T04:52:37.505Z,24.2
2022-11-26T04:53:39.977Z,24.3
2022-11-26T04:54:42.538Z,24.3
2022-11-26T04:55:45.022Z,24.2
2022-11-26T04:56:47.530Z,24.4
2022-11-26T04:57:50.002Z,24.5
2022-11-26T04:58:52.474Z,23.9
2022-11-26T04:59:54.972Z,23.8
2022-11-26T05:00:57.502Z,24.2
2022-11-26T05:02:00.357Z,24.3
2022-11-26T05:03:02.672Z,24.1
2022-11-26T05:04:04.992Z,24.3
2022-11-26T05:05:07.197Z,23.7
2022-11-26T05:06:09.141Z,24.4
2022-11-26T05:07:11.652Z,23.6
2022-11-26T05:08:14.290Z,24.4
2022-11-26T05:09:16.813Z,24.3
2022-11-26T05:10:19.057Z,24.4
2022-11-26T05:11:21.252Z,24.1
2022-11-26T05:12:23.837Z,23.6
2022-11-26T05:13:26.317Z,23.7
2022-11-26T05:14:28.810Z,24
2022-11-26T05:15:31.317Z,24.5
2022-11-26T05:16:33.559Z,24.3
2022-11-26T05:17:36.603Z,24.1
2022-11-26T05:18:39.112Z,23.8
2022-11-26T05:19:41.040Z,23.7
2022-11-26T05:20:43.510Z,24.3
2022-11-26T05:21:45.986Z,23.7
2022-11-26T05:22:48.192Z,23.5
2022-11-26T05:23:50.392Z,23.8
2022-11-26T05:24:52.888Z,24.1
2022-11-26T05:25:55.161Z,24.2
2022-11-26T05:26:57.644Z,23.8
2022-11-26T05:28:00.139Z,23.6
2022-11-26T05:29:02.627Z,23.9
2022-11-26T05:30:04.637Z,24.3
2022-11-26T05:31:06.856Z,23.9
2022-11-26T05:32:09.101Z,24
2022-11-26T05:33:12.040Z,24
2022-11-26T05:34:13.968Z,24.2
2022-11-26T05:35:16.437Z,23.6
2022-11-26T05:36:18.632Z,24.2
2022-11-26T05:37:21.120Z,24.1
2022-11-26T05:38:23.297Z,24.2
2022-11-26T05:39:25.229Z,23.6
2022-11-26T05:40:27.426Z,23.8
2022-11-26T05:41:29.961Z,24.3
2022-11-26T05:42:31.880Z,23.7
2022-11-26T05:43:34.380Z,24.2
2022-11-26T05:44:37.144Z,23.9
2022-11-26T05:45:41.714Z,23.5
2022-11-26T05:46:44.591Z,23.5
2022-11-26T05:47:46.852Z,23.6
2022-11-26T05:48:49.326Z,23.8
2022-11-26T05:49:51.550Z,24.2
2022-11-26T05:50:54.596Z,23.8
2022-11-26T05:51:57.149Z,24.3
2022-11-26T05:52:59.644Z,23.9
2022-11-26T05:54:02.129Z,23.6
2022-11-26T05:55:04.602Z,23.6
2022-11-26T05:56:07.075Z,24.3
2022-11-26T05:57:09.358Z,24
2022-11-26T05:58:11.556Z,23.9
2022-11-26T05:59:14.059Z,23.8
2022-11-26T06:00:16.250Z,24.3
2022-11-26T06:01:18.740Z,24.4
2022-11-26T06:02:21.161Z,24.1
2022-11-26T06:03:24.387Z,23.9
2022-11-26T06:04:27.799Z,23.6
2022-11-26T06:05:29.718Z,23.8
2022-11-26T06:06:31.929Z,23.7
2022-11-26T06:07:33.896Z,24.5
2022-11-26T06:08:40.279Z,23.8
2022-11-26T06:09:42.197Z,24.1
2022-11-26T06:10:44.675Z,23.6
2022-11-26T06:11:46.886Z,23.9
2022-11-26T06:12:49.147Z,24.2
2022-11-26T06:13:51.621Z,23.3
2022-11-26T06:14:54.129Z,23.3
2022-11-26T06:15:56.609Z,24.2
2022-11-26T06:16:59.183Z,23.5
2022-11-26T06:18:02.171Z,23.9
2022-11-26T06:19:04.670Z,23.9
2022-11-26T06:20:06.861Z,23.7
2022-11-26T06:21:09.334Z,24
2022-11-26T06:22:11.797Z,24.2
2022-11-26T06:23:13.764Z,23.8
2022-11-26T06:24:15.668Z,23.5
2022-11-26T06:25:17.575Z,24.2
2022-11-26T06:26:20.050Z,23.4
2022-11-26T06:27:22.532Z,23.7
2022-11-26T06:28:25.077Z,23.9
2022-11-26T06:29:28.224Z,23.8
2022-11-26T06:30:30.929Z,24.1
2022-11-26T06:31:33.495Z,23.5
2022-11-26T06:32:36.701Z,23.6
2022-11-26T06:33:38.923Z,23.7
2022-11-26T06:34:43.839Z,24.4
2022-11-26T06:35:46.105Z,23.8
2022-11-26T06:36:48.594Z,23.8
2022-11-26T06:37:51.069Z,23.7
2022-11-26T06:38:52.976Z,23.7
2022-11-26T06:39:55.446Z,23.9
2022-11-26T06:40:57.624Z,24.4
2022-11-26T06:41:59.824Z,23.9
2022-11-26T06:43:02.300Z,23.7
2022-11-26T06:44:04.842Z,24.2
2022-11-26T06:45:07.322Z,24
2022-11-26T06:46:09.937Z,23.7
2022-11-26T06:47:12.793Z,23.9
2022-11-26T06:48:15.008Z,23.9
2022-11-26T06:49:17.229Z,23.9
2022-11-26T06:50:19.435Z,24.2
2022-11-26T06:51:21.609Z,23.9
2022-11-26T06:52:23.828Z,23.8
2022-11-26T06:53:26.023Z,24
2022-11-26T06:54:27.946Z,23.9
2022-11-26T06:55:30.417Z,23.9
2022-11-26T06:56:32.625Z,24
2022-11-26T06:57:34.533Z,24.1
2022-11-26T06:58:37.042Z,23.6
2022-11-26T06:59:39.632Z,23.6
2022-11-26T07:00:42.117Z,24
2022-11-26T07:01:43.834Z,23.5
2022-11-26T07:02:46.756Z,23.8
2022-11-26T07:03:49.402Z,23.8
2022-11-26T07:04:51.916Z,23.8
2022-11-26T07:05:54.398Z,23.7
2022-11-26T07:06:56.884Z,24
2022-11-26T07:07:59.361Z,23.6
2022-11-26T07:09:01.857Z,23.7
2022-11-26T07:10:04.333Z,24.1
2022-11-26T07:11:06.820Z,24
2022-11-26T07:12:08.999Z,23.9
2022-11-26T07:13:11.495Z,23.7
2022-11-26T07:14:13.983Z,23.9
2022-11-26T07:15:16.251Z,23.9
2022-11-26T07:16:18.780Z,23.8
2022-11-26T07:17:21.536Z,24
2022-11-26T07:18:23.736Z,23.7
2022-11-26T07:19:26.208Z,23.2
2022-11-26T07:20:28.726Z,23.9
2022-11-26T07:21:31.108Z,23.6
2022-11-26T07:22:33.588Z,23.8
2022-11-26T07:23:35.782Z,23.5
2022-11-26T07:24:38.115Z,23.9
2022-11-26T07:25:42.137Z,24
2022-11-26T07:26:43.797Z,23.5
2022-11-26T07:27:46.282Z,23.9
2022-11-26T07:28:48.878Z,24
2022-11-26T07:29:51.379Z,23.5
2022-11-26T07:30:53.960Z,24.1
2022-11-26T07:31:56.730Z,23.8
2022-11-26T07:32:59.407Z,24.2
2022-11-26T07:34:01.884Z,23.7
2022-11-26T07:35:04.100Z,23.6
2022-11-26T07:36:06.318Z,23.8
2022-11-26T07:37:08.527Z,23.6
2022-11-26T07:38:10.717Z,23.9
2022-11-26T07:39:12.354Z,23.7
2022-11-26T07:40:14.843Z,23.9
2022-11-26T07:41:16.788Z,23.4
2022-11-26T07:42:19.298Z,23.7
2022-11-26T07:43:21.564Z,23.9
2022-11-26T07:44:24.060Z,24
2022-11-26T07:45:26.532Z,23.5
2022-11-26T07:46:29.159Z,23.8
2022-11-26T07:47:31.488Z,23.6
2022-11-26T07:48:33.728Z,23.3
2022-11-26T07:49:35.941Z,23.8
2022-11-26T07:50:38.412Z,23.7
2022-11-26T07:51:40.933Z,23.8
2022-11-26T07:52:42.859Z,23.2
2022-11-26T07:53:45.068Z,23.4
2022-11-26T07:54:47.278Z,23.7
2022-11-26T07:55:49.473Z,23.3
2022-11-26T07:56:51.973Z,23.9
2022-11-26T07:57:53.904Z,23.7
2022-11-26T07:58:56.379Z,23.6
2022-11-26T07:59:58.866Z,23.4
2022-11-26T08:01:01.098Z,23.6
2022-11-26T08:02:04.004Z,23.7
2022-11-26T08:03:06.549Z,23.3
2022-11-26T08:04:08.489Z,23.8
2022-11-26T08:05:10.954Z,23.7
2022-11-26T08:06:12.905Z,23.7
2022-11-26T08:07:22.005Z,23.1
2022-11-26T08:08:20.390Z,23.5
2022-11-26T08:09:22.604Z,23.6
2022-11-26T08:10:24.793Z,23.8
2022-11-26T08:11:26.709Z,23.8
2022-11-26T08:12:28.947Z,23.6
2022-11-26T08:13:31.424Z,23.6
2022-11-26T08:14:33.913Z,23.5
2022-11-26T08:15:36.786Z,23.5
2022-11-26T08:16:39.065Z,23.6
2022-11-26T08:17:41.894Z,23.9
2022-11-26T08:18:43.819Z,23.7
2022-11-26T08:19:45.771Z,23.7
2022-11-26T08:20:47.989Z,23.9
2022-11-26T08:21:50.469Z,23.5
2022-11-26T08:22:52.725Z,23.8
2022-11-26T08:23:55.203Z,23.7
2022-11-26T08:24:57.693Z,23.9
2022-11-26T08:26:20.931Z,23.8
2022-11-26T08:27:04.610Z,23.9
2022-11-26T08:28:07.090Z,23.9
2022-11-26T08:29:09.014Z,23.8
2022-11-26T08:30:10.938Z,23.5
2022-11-26T08:31:13.191Z,23.6
2022-11-26T08:32:16.054Z,23.7
2022-11-26T08:33:18.599Z,24
2022-11-26T08:34:20.538Z,24.1
2022-11-26T08:35:34.383Z,23.9
2022-11-26T08:36:28.033Z,23.5
2022-11-26T08:37:30.515Z,23.6
2022-11-26T08:38:32.747Z,23.4
2022-11-26T08:39:34.954Z,23.6
2022-11-26T08:40:37.435Z,23.5
2022-11-26T08:41:39.366Z,23.9
2022-11-26T08:42:41.587Z,23.5
2022-11-26T08:44:48.785Z,23.9
2022-11-26T08:45:51.278Z,23.9
2022-11-26T08:46:53.701Z,23.9
2022-11-26T08:47:55.358Z,23.8
2022-11-26T08:48:57.900Z,23.9
2022-11-26T08:50:00.115Z,23.5
2022-11-26T08:51:02.359Z,23.6
2022-11-26T08:52:04.576Z,23.6
2022-11-26T08:53:07.075Z,23.4
2022-11-26T08:54:09.606Z,23.8
2022-11-26T08:55:11.897Z,23.6
2022-11-26T08:56:14.113Z,23.9
2022-11-26T08:57:16.332Z,23.8
2022-11-26T08:58:18.847Z,23.4
2022-11-26T08:59:21.328Z,23.6
2022-11-26T09:00:23.852Z,23.9
2022-11-26T09:01:25.902Z,23.7
2022-11-26T09:02:28.602Z,23.5
2022-11-26T09:03:31.089Z,23.9
2022-11-26T09:04:33.674Z,23.8
2022-11-26T09:05:36.163Z,23.6
2022-11-26T09:06:38.386Z,23.6
2022-11-26T09:07:42.190Z,23.6
2022-11-26T09:08:45.859Z,23.6
2022-11-26T09:09:48.072Z,23.5
2022-11-26T09:10:49.990Z,23.9
2022-11-26T09:11:52.212Z,23.5
2022-11-26T09:12:54.721Z,23.8
2022-11-26T09:13:57.215Z,23.7
2022-11-26T09:14:59.745Z,23.5
2022-11-26T09:16:02.753Z,23.6
2022-11-26T09:17:05.315Z,23.7
2022-11-26T09:18:07.662Z,23.6
2022-11-26T09:19:10.156Z,23.3
2022-11-26T09:20:12.700Z,23.7
2022-11-26T09:21:15.176Z,23.7
2022-11-26T09:22:17.410Z,23.8
2022-11-26T09:23:19.623Z,23.6
2022-11-26T09:24:22.097Z,23.5
2022-11-26T09:25:24.646Z,23.6
2022-11-26T09:26:27.119Z,23.6
2022-11-26T09:27:29.053Z,23.5
2022-11-26T09:28:31.527Z,23.7
2022-11-26T09:29:33.737Z,23.3
2022-11-26T09:30:36.213Z,23.9
2022-11-26T09:31:49.967Z,23.5
2022-11-26T09:32:43.741Z,23.7
2022-11-26T09:33:46.401Z,23.4
2022-11-26T09:34:49.020Z,23.8
2022-11-26T09:35:51.568Z,23.6
2022-11-26T09:36:53.513Z,23.5
2022-11-26T09:37:55.735Z,23.5
2022-11-26T09:38:57.656Z,23.7
2022-11-26T09:40:00.163Z,23.7
2022-11-26T09:41:02.663Z,23.6
2022-11-26T09:42:04.901Z,23.7
2022-11-26T09:43:07.137Z,23.6
2022-11-26T09:44:09.335Z,24
2022-11-26T09:45:11.815Z,23.6
2022-11-26T09:46:14.334Z,23.4
2022-11-26T09:47:17.182Z,23.7
2022-11-26T09:48:19.396Z,23.5
2022-11-26T09:49:21.886Z,23.8
2022-11-26T09:50:24.079Z,23.5
2022-11-26T09:51:26.625Z,23.5
2022-11-26T09:52:28.554Z,23.7
2022-11-26T09:53:31.069Z,23.6
2022-11-26T09:54:33.273Z,23.2
2022-11-26T09:55:35.480Z,23.3
2022-11-26T09:56:37.863Z,23.7
2022-11-26T09:57:40.341Z,23.5
2022-11-26T09:58:42.829Z,23.2
2022-11-26T09:59:45.038Z,23.4
2022-11-26T10:00:47.272Z,23.7
2022-11-26T10:01:49.781Z,23.5
2022-11-26T10:02:51.917Z,23.6
2022-11-26T10:03:54.413Z,23.7
2022-11-26T10:04:56.882Z,23.5
2022-11-26T10:05:58.805Z,23.5
2022-11-26T10:07:01.377Z,23.4
2022-11-26T10:08:03.579Z,23.7
2022-11-26T10:09:05.830Z,23.7
2022-11-26T10:10:08.228Z,23.4
2022-11-26T10:11:09.899Z,23.6
2022-11-26T10:12:24.596Z,23.8
2022-11-26T10:13:19.330Z,23.5
2022-11-26T10:14:22.239Z,23.6
2022-11-26T10:15:24.754Z,23.5
2022-11-26T10:16:27.038Z,23.6
2022-11-26T10:17:29.537Z,23.6
2022-11-26T10:18:31.454Z,23.4
2022-11-26T10:19:33.663Z,23.5
2022-11-26T10:20:35.591Z,23.7
2022-11-26T10:21:57.973Z,23.4
2022-11-26T10:22:42.792Z,23.5
2022-11-26T10:23:45.338Z,23.6
2022-11-26T10:24:47.410Z,23.6
2022-11-26T10:25:49.898Z,23.6
2022-11-26T10:26:52.394Z,23.5
2022-11-26T10:27:54.328Z,23.4
2022-11-26T10:28:56.530Z,23.5
2022-11-26T10:29:58.446Z,23.4
2022-11-26T10:31:00.648Z,23.6
2022-11-26T10:32:02.903Z,23.8
2022-11-26T10:33:05.027Z,23.3
2022-11-26T10:34:07.501Z,23.6
2022-11-26T10:35:09.710Z,23.3
2022-11-26T10:36:11.932Z,23.3
2022-11-26T10:37:14.154Z,23.6
2022-11-26T10:38:16.342Z,23.5
2022-11-26T10:39:18.624Z,23.5
2022-11-26T10:40:20.604Z,23.5
2022-11-26T10:41:23.098Z,23.6
2022-11-26T10:42:25.315Z,23.6
2022-11-26T10:43:27.827Z,23.5
2022-11-26T10:44:30.033Z,23.4
2022-11-26T10:45:32.561Z,23.5
2022-11-26T10:46:35.233Z,23.5
2022-11-26T10:47:38.002Z,23.6
2022-11-26T10:48:41.091Z,23.3
2022-11-26T10:49:43.585Z,23.5
2022-11-26T10:50:47.821Z,23.5
2022-11-26T10:51:50.676Z,23.5
2022-11-26T10:52:53.174Z,23.3
2022-11-26T10:53:55.676Z,23.3
2022-11-26T10:54:58.285Z,23.5
2022-11-26T10:56:00.530Z,23.3
2022-11-26T10:57:02.439Z,23.5
2022-11-26T10:58:04.370Z,23.6
2022-11-26T10:59:06.633Z,23.4
2022-11-26T11:00:09.125Z,23.4
2022-11-26T11:01:11.380Z,23.6
2022-11-26T11:02:13.857Z,23.5
2022-11-26T11:03:16.554Z,23.5
2022-11-26T11:04:18.754Z,23.4
2022-11-26T11:05:20.685Z,23.5
2022-11-26T11:06:23.172Z,23.6
2022-11-26T11:07:25.443Z,23.3
2022-11-26T11:08:28.422Z,23.3
2022-11-26T11:09:30.377Z,23.7
2022-11-26T11:10:33.012Z,23.5
2022-11-26T11:11:35.526Z,23.3
2022-11-26T11:12:37.749Z,23.6
2022-11-26T11:13:40.251Z,23.4
2022-11-26T11:14:43.737Z,23.5
2022-11-26T11:15:48.585Z,23.6
2022-11-26T11:16:50.820Z,23.6
2022-11-26T11:17:52.896Z,23.5
2022-11-26T11:18:55.090Z,23.4
2022-11-26T11:19:57.471Z,23.5
2022-11-26T11:20:59.964Z,23.6
2022-11-26T11:22:01.893Z,23.3
2022-11-26T11:23:04.498Z,23.2
2022-11-26T11:24:08.794Z,23.6
2022-11-26T11:25:11.716Z,23.6
2022-11-26T11:26:14.250Z,23.5
2022-11-26T11:27:16.875Z,23.4
2022-11-26T11:28:19.074Z,23.2
2022-11-26T11:29:21.564Z,23.5
2022-11-26T11:30:24.236Z,23.5
2022-11-26T11:31:26.810Z,23.3
2022-11-26T11:32:29.194Z,23.5
2022-11-26T11:33:31.379Z,23.7
2022-11-26T11:34:33.607Z,23.5
2022-11-26T11:35:36.085Z,23.4
2022-11-26T11:36:38.042Z,23.6
2022-11-26T11:37:40.519Z,23.3
2022-11-26T11:38:42.732Z,23.7
2022-11-26T11:39:44.939Z,23.5
2022-11-26T11:40:47.140Z,23.4
2022-11-26T11:41:49.772Z,23.8
2022-11-26T11:42:52.280Z,23.5
2022-11-26T11:43:54.490Z,23.4
2022-11-26T11:44:56.982Z,23.5
2022-11-26T11:45:59.512Z,23.1
2022-11-26T11:47:02.269Z,23.4
2022-11-26T11:48:04.749Z,23.7
2022-11-26T11:49:06.962Z,23.5
2022-11-26T11:50:09.451Z,23.5
2022-11-26T11:51:11.633Z,23.2
2022-11-26T11:52:13.643Z,23.6
2022-11-26T11:53:15.843Z,23.3
2022-11-26T11:54:18.326Z,23.4
2022-11-26T11:55:20.826Z,23.5
2022-11-26T11:56:22.453Z,23.6
2022-11-26T11:57:25.025Z,23.6
2022-11-26T11:58:27.532Z,23.6
2022-11-26T11:59:29.763Z,23.4
2022-11-26T12:00:31.966Z,23.6
2022-11-26T12:01:34.468Z,23.7
2022-11-26T12:02:37.320Z,23.4
2022-11-26T12:03:39.984Z,23.5
2022-11-26T12:04:42.400Z,23.4
2022-11-26T12:05:45.327Z,23.3
2022-11-26T12:06:47.552Z,23.4
2022-11-26T12:07:49.501Z,23.2
2022-11-26T12:08:52.027Z,23.7
2022-11-26T12:09:54.253Z,23.7
2022-11-26T12:10:56.473Z,23.5
2022-11-26T12:11:58.974Z,23.4
2022-11-26T12:13:01.527Z,23.5
2022-11-26T12:14:03.755Z,23.6
2022-11-26T12:15:05.942Z,23.5
2022-11-26T12:16:08.238Z,23.4
2022-11-26T12:17:10.708Z,23.3
2022-11-26T12:18:12.922Z,23.5
2022-11-26T12:19:14.873Z,23.5
2022-11-26T12:20:17.092Z,23.6
2022-11-26T12:21:19.679Z,23.4
2022-11-26T12:22:22.193Z,23.5
2022-11-26T12:23:24.882Z,23.9
2022-11-26T12:24:27.468Z,23.6
2022-11-26T12:25:33.646Z,23.6
2022-11-26T12:26:34.661Z,23.8
2022-11-26T12:27:37.144Z,23.6
2022-11-26T12:28:39.731Z,23.6
2022-11-26T12:29:42.251Z,23.6
2022-11-26T12:30:44.186Z,23.4
2022-11-26T12:31:46.474Z,23.7
2022-11-26T12:32:49.355Z,23.8
2022-11-26T12:33:51.579Z,23.3
2022-11-26T12:34:53.797Z,23.7
2022-11-26T12:35:55.727Z,23.6
2022-11-26T12:36:57.954Z,23.4
2022-11-26T12:37:59.587Z,23.5
2022-11-26T12:39:02.079Z,23.4
2022-11-26T12:40:04.287Z,23.7
2022-11-26T12:41:06.799Z,23.5
2022-11-26T12:42:08.434Z,23.7
2022-11-26T12:43:10.650Z,23.6
2022-11-26T12:44:13.207Z,23.5
2022-11-26T12:45:17.503Z,23.5
2022-11-26T12:46:20.159Z,23.4
2022-11-26T12:47:22.983Z,23.4
2022-11-26T12:48:25.278Z,23.4
2022-11-26T12:49:27.490Z,23.1
2022-11-26T12:50:29.133Z,23.5
2022-11-26T12:51:35.677Z,23.5
2022-11-26T12:52:37.895Z,23.5
2022-11-26T12:53:40.106Z,23.5
2022-11-26T12:54:42.468Z,23.6
2022-11-26T12:55:44.478Z,23.7
2022-11-26T12:56:46.695Z,23.6
2022-11-26T12:57:49.176Z,23.6
2022-11-26T12:58:51.672Z,23.3
2022-11-26T12:59:54.233Z,23.7
2022-11-26T13:00:56.825Z,23.7
2022-11-26T13:01:59.727Z,23.7
2022-11-26T13:03:02.294Z,23.5
2022-11-26T13:04:29.773Z,23.4
2022-11-26T13:05:09.500Z,23.6
2022-11-26T13:06:12.016Z,23.4
2022-11-26T13:07:14.288Z,23.5
2022-11-26T13:08:16.252Z,23.5
2022-11-26T13:09:18.751Z,23.5
2022-11-26T13:10:20.933Z,23.4
2022-11-26T13:11:23.171Z,23.6
2022-11-26T13:12:25.643Z,23.6
2022-11-26T13:13:28.125Z,23.6
2022-11-26T13:14:30.304Z,23.6
2022-11-26T13:15:32.635Z,23.6
2022-11-26T13:16:35.061Z,23.5
2022-11-26T13:17:37.892Z,23.5
2022-11-26T13:18:40.381Z,23.5
2022-11-26T13:19:42.892Z,23.5
2022-11-26T13:20:44.865Z,23.4
2022-11-26T13:21:47.354Z,23.5
2022-11-26T13:22:49.570Z,23.3
2022-11-26T13:23:52.050Z,23.6
2022-11-26T13:24:54.249Z,23.3
2022-11-26T13:25:56.733Z,23.4
2022-11-26T13:26:59.210Z,23.3
2022-11-26T13:28:33.272Z,23.5
2022-11-26T13:29:35.475Z,23.5
2022-11-26T13:30:37.736Z,23.5
2022-11-26T13:31:39.448Z,23.4
2022-11-26T13:32:41.960Z,23.6
2022-11-26T13:33:44.445Z,23.5
2022-11-26T13:34:46.969Z,23.6
2022-11-26T13:35:49.170Z,23.3
2022-11-26T13:36:51.670Z,23.5
2022-11-26T13:37:54.240Z,23.6
2022-11-26T13:38:56.450Z,23.4
2022-11-26T13:39:58.842Z,23.6
2022-11-26T13:41:01.336Z,23.6
2022-11-26T13:42:03.529Z,23.6
2022-11-26T13:43:05.742Z,23.7
2022-11-26T13:44:08.221Z,23.6
2022-11-26T13:45:10.434Z,23.4
2022-11-26T13:46:14.608Z,23.5
2022-11-26T13:47:17.716Z,23.5
2022-11-26T13:48:20.190Z,23.4
2022-11-26T13:49:22.126Z,23.7
2022-11-26T13:50:24.360Z,23.6
2022-11-26T13:51:26.842Z,23.6
2022-11-26T13:52:29.058Z,23.6
2022-11-26T13:53:31.541Z,23.4
2022-11-26T13:54:34.016Z,23.6